sensor_id;sensor_type;location;lat;lon;timestamp;P1;durP1;ratioP1;P2;durP2;ratioP2
20731;SDS011;10527;52.124;5.196;2023-06-26T00:01:07;6.65;;;3.85;;
20731;SDS011;10527;52.124;5.196;2023-06-26T00:03:34;4.05;;;3.55;;
20731;SDS011;10527;52.124;5.196;2023-06-26T00:06:01;4.47;;;3.53;;
20731;SDS011;10527;52.124;5.196;2023-06-26T00:08:28;4.70;;;3.95;;
20731;SDS011;10527;52.124;5.196;2023-06-26T00:10:57;5.03;;;4.20;;
20731;SDS011;10527;52.124;5.196;2023-06-26T00:13:24;4.68;;;3.85;;
20731;SDS011;10527;52.124;5.196;2023-06-26T00:15:51;4.80;;;3.80;;
20731;SDS011;10527;52.124;5.196;2023-06-26T00:18:20;4.57;;;3.72;;
20731;SDS011;10527;52.124;5.196;2023-06-26T00:20:49;4.50;;;3.80;;
20731;SDS011;10527;52.124;5.196;2023-06-26T00:23:16;4.18;;;3.60;;
20731;SDS011;10527;52.124;5.196;2023-06-26T00:25:43;5.82;;;4.15;;
20731;SDS011;10527;52.124;5.196;2023-06-26T00:28:10;3.72;;;3.33;;
20731;SDS011;10527;52.124;5.196;2023-06-26T00:30:39;6.00;;;3.78;;
20731;SDS011;10527;52.124;5.196;2023-06-26T00:33:06;4.05;;;3.50;;
20731;SDS011;10527;52.124;5.196;2023-06-26T00:35:33;4.20;;;3.63;;
20731;SDS011;10527;52.124;5.196;2023-06-26T00:38:01;4.22;;;3.20;;
20731;SDS011;10527;52.124;5.196;2023-06-26T00:40:28;4.50;;;3.75;;
20731;SDS011;10527;52.124;5.196;2023-06-26T00:42:55;4.88;;;3.38;;
20731;SDS011;10527;52.124;5.196;2023-06-26T00:45:23;4.95;;;4.07;;
20731;SDS011;10527;52.124;5.196;2023-06-26T00:48:07;4.90;;;3.78;;
20731;SDS011;10527;52.124;5.196;2023-06-26T00:50:38;4.03;;;3.63;;
20731;SDS011;10527;52.124;5.196;2023-06-26T00:53:06;4.75;;;3.78;;
20731;SDS011;10527;52.124;5.196;2023-06-26T00:55:36;4.22;;;3.75;;
20731;SDS011;10527;52.124;5.196;2023-06-26T00:58:04;4.68;;;3.63;;
20731;SDS011;10527;52.124;5.196;2023-06-26T01:00:31;5.28;;;3.50;;
20731;SDS011;10527;52.124;5.196;2023-06-26T01:02:58;4.18;;;3.55;;
20731;SDS011;10527;52.124;5.196;2023-06-26T01:05:27;4.40;;;3.92;;
20731;SDS011;10527;52.124;5.196;2023-06-26T01:07:56;5.10;;;3.80;;
20731;SDS011;10527;52.124;5.196;2023-06-26T01:10:24;5.32;;;3.58;;
20731;SDS011;10527;52.124;5.196;2023-06-26T01:12:54;5.63;;;3.80;;
20731;SDS011;10527;52.124;5.196;2023-06-26T01:15:21;4.85;;;4.10;;
20731;SDS011;10527;52.124;5.196;2023-06-26T01:17:49;5.45;;;4.22;;
20731;SDS011;10527;52.124;5.196;2023-06-26T01:20:18;6.07;;;3.83;;
20731;SDS011;10527;52.124;5.196;2023-06-26T01:28:34;6.28;;;3.88;;
20731;SDS011;10527;52.124;5.196;2023-06-26T01:31:05;6.63;;;4.60;;
20731;SDS011;10527;52.124;5.196;2023-06-26T01:33:34;6.80;;;4.43;;
20731;SDS011;10527;52.124;5.196;2023-06-26T01:36:01;5.97;;;4.60;;
20731;SDS011;10527;52.124;5.196;2023-06-26T01:38:30;5.45;;;4.13;;
20731;SDS011;10527;52.124;5.196;2023-06-26T01:40:59;6.43;;;4.15;;
20731;SDS011;10527;52.124;5.196;2023-06-26T01:52:25;8.15;;;3.47;;
20731;SDS011;10527;52.124;5.196;2023-06-26T01:58:10;5.95;;;3.03;;
20731;SDS011;10527;52.124;5.196;2023-06-26T02:00:44;4.10;;;3.03;;
20731;SDS011;10527;52.124;5.196;2023-06-26T02:03:11;6.75;;;3.05;;
20731;SDS011;10527;52.124;5.196;2023-06-26T02:05:38;8.73;;;3.25;;
20731;SDS011;10527;52.124;5.196;2023-06-26T02:08:05;5.30;;;3.28;;
20731;SDS011;10527;52.124;5.196;2023-06-26T02:10:36;7.35;;;3.17;;
20731;SDS011;10527;52.124;5.196;2023-06-26T02:13:04;4.78;;;2.88;;
20731;SDS011;10527;52.124;5.196;2023-06-26T02:15:30;7.45;;;3.58;;
20731;SDS011;10527;52.124;5.196;2023-06-26T02:17:57;6.47;;;2.75;;
20731;SDS011;10527;52.124;5.196;2023-06-26T02:20:24;7.25;;;3.13;;
20731;SDS011;10527;52.124;5.196;2023-06-26T02:22:51;6.82;;;3.05;;
20731;SDS011;10527;52.124;5.196;2023-06-26T02:25:18;6.25;;;2.88;;
20731;SDS011;10527;52.124;5.196;2023-06-26T02:27:45;7.32;;;2.90;;
20731;SDS011;10527;52.124;5.196;2023-06-26T02:30:12;5.53;;;2.85;;
20731;SDS011;10527;52.124;5.196;2023-06-26T02:32:39;6.35;;;2.78;;
20731;SDS011;10527;52.124;5.196;2023-06-26T02:35:06;9.30;;;3.30;;
20731;SDS011;10527;52.124;5.196;2023-06-26T02:37:35;7.05;;;3.03;;
20731;SDS011;10527;52.124;5.196;2023-06-26T02:40:03;7.13;;;2.58;;
20731;SDS011;10527;52.124;5.196;2023-06-26T02:42:31;6.45;;;3.05;;
20731;SDS011;10527;52.124;5.196;2023-06-26T02:44:59;7.78;;;3.58;;
20731;SDS011;10527;52.124;5.196;2023-06-26T02:47:26;6.68;;;2.90;;
20731;SDS011;10527;52.124;5.196;2023-06-26T02:49:53;9.50;;;3.40;;
20731;SDS011;10527;52.124;5.196;2023-06-26T02:52:19;7.32;;;3.05;;
20731;SDS011;10527;52.124;5.196;2023-06-26T02:54:46;9.90;;;3.10;;
20731;SDS011;10527;52.124;5.196;2023-06-26T02:57:13;11.95;;;3.03;;
20731;SDS011;10527;52.124;5.196;2023-06-26T02:59:40;9.95;;;3.35;;
20731;SDS011;10527;52.124;5.196;2023-06-26T03:02:07;9.55;;;3.08;;
20731;SDS011;10527;52.124;5.196;2023-06-26T03:04:34;7.10;;;3.20;;
20731;SDS011;10527;52.124;5.196;2023-06-26T03:07:03;7.05;;;2.85;;
20731;SDS011;10527;52.124;5.196;2023-06-26T03:09:30;7.68;;;3.08;;
20731;SDS011;10527;52.124;5.196;2023-06-26T03:11:57;7.82;;;3.20;;
20731;SDS011;10527;52.124;5.196;2023-06-26T03:14:24;5.20;;;2.70;;
20731;SDS011;10527;52.124;5.196;2023-06-26T03:16:52;9.63;;;3.70;;
20731;SDS011;10527;52.124;5.196;2023-06-26T03:19:23;6.60;;;3.10;;
20731;SDS011;10527;52.124;5.196;2023-06-26T03:21:50;10.23;;;3.67;;
20731;SDS011;10527;52.124;5.196;2023-06-26T03:24:17;11.05;;;3.17;;
20731;SDS011;10527;52.124;5.196;2023-06-26T03:26:44;9.07;;;3.33;;
20731;SDS011;10527;52.124;5.196;2023-06-26T03:29:11;7.65;;;3.55;;
20731;SDS011;10527;52.124;5.196;2023-06-26T03:31:38;8.90;;;3.15;;
20731;SDS011;10527;52.124;5.196;2023-06-26T03:34:04;12.27;;;4.45;;
20731;SDS011;10527;52.124;5.196;2023-06-26T03:36:31;8.65;;;3.33;;
20731;SDS011;10527;52.124;5.196;2023-06-26T03:38:58;9.00;;;3.42;;
20731;SDS011;10527;52.124;5.196;2023-06-26T03:41:26;8.15;;;3.25;;
20731;SDS011;10527;52.124;5.196;2023-06-26T03:43:53;8.70;;;3.20;;
20731;SDS011;10527;52.124;5.196;2023-06-26T03:46:21;10.05;;;4.10;;
20731;SDS011;10527;52.124;5.196;2023-06-26T03:48:48;8.02;;;3.30;;
20731;SDS011;10527;52.124;5.196;2023-06-26T03:51:16;11.27;;;3.35;;
20731;SDS011;10527;52.124;5.196;2023-06-26T03:53:43;9.05;;;3.33;;
20731;SDS011;10527;52.124;5.196;2023-06-26T03:56:10;10.57;;;4.10;;
20731;SDS011;10527;52.124;5.196;2023-06-26T03:58:37;8.88;;;3.83;;
20731;SDS011;10527;52.124;5.196;2023-06-26T04:01:04;13.27;;;3.88;;
20731;SDS011;10527;52.124;5.196;2023-06-26T04:03:31;7.75;;;3.45;;
20731;SDS011;10527;52.124;5.196;2023-06-26T04:06:00;7.95;;;3.25;;
20731;SDS011;10527;52.124;5.196;2023-06-26T04:08:27;10.65;;;3.45;;
20731;SDS011;10527;52.124;5.196;2023-06-26T04:10:54;7.07;;;3.40;;
20731;SDS011;10527;52.124;5.196;2023-06-26T04:13:24;8.45;;;3.60;;
20731;SDS011;10527;52.124;5.196;2023-06-26T04:15:51;6.72;;;3.08;;
20731;SDS011;10527;52.124;5.196;2023-06-26T04:18:18;7.45;;;2.90;;
20731;SDS011;10527;52.124;5.196;2023-06-26T04:23:38;8.60;;;3.03;;
20731;SDS011;10527;52.124;5.196;2023-06-26T04:26:07;6.63;;;2.90;;
20731;SDS011;10527;52.124;5.196;2023-06-26T04:28:34;7.70;;;3.47;;
20731;SDS011;10527;52.124;5.196;2023-06-26T04:31:02;12.27;;;3.25;;
20731;SDS011;10527;52.124;5.196;2023-06-26T04:33:29;8.55;;;3.33;;
20731;SDS011;10527;52.124;5.196;2023-06-26T04:35:56;6.55;;;3.20;;
20731;SDS011;10527;52.124;5.196;2023-06-26T04:38:23;6.10;;;3.00;;
20731;SDS011;10527;52.124;5.196;2023-06-26T04:40:50;11.80;;;3.58;;
20731;SDS011;10527;52.124;5.196;2023-06-26T04:43:17;8.70;;;3.92;;
20731;SDS011;10527;52.124;5.196;2023-06-26T04:45:44;5.18;;;2.83;;
20731;SDS011;10527;52.124;5.196;2023-06-26T04:48:11;7.63;;;3.20;;
20731;SDS011;10527;52.124;5.196;2023-06-26T04:50:38;6.07;;;2.85;;
20731;SDS011;10527;52.124;5.196;2023-06-26T04:53:06;6.05;;;2.83;;
20731;SDS011;10527;52.124;5.196;2023-06-26T04:55:33;7.80;;;3.17;;
20731;SDS011;10527;52.124;5.196;2023-06-26T04:58:06;10.70;;;2.95;;
20731;SDS011;10527;52.124;5.196;2023-06-26T05:00:32;6.55;;;2.30;;
20731;SDS011;10527;52.124;5.196;2023-06-26T05:03:02;5.10;;;2.85;;
20731;SDS011;10527;52.124;5.196;2023-06-26T05:05:30;3.83;;;2.72;;
20731;SDS011;10527;52.124;5.196;2023-06-26T05:07:56;6.28;;;2.40;;
20731;SDS011;10527;52.124;5.196;2023-06-26T05:10:23;5.30;;;2.78;;
20731;SDS011;10527;52.124;5.196;2023-06-26T05:12:50;8.23;;;2.90;;
20731;SDS011;10527;52.124;5.196;2023-06-26T05:15:17;3.55;;;2.35;;
20731;SDS011;10527;52.124;5.196;2023-06-26T05:17:44;6.10;;;2.65;;
20731;SDS011;10527;52.124;5.196;2023-06-26T05:20:13;4.72;;;2.05;;
20731;SDS011;10527;52.124;5.196;2023-06-26T05:22:41;6.10;;;2.92;;
20731;SDS011;10527;52.124;5.196;2023-06-26T05:25:09;4.13;;;2.22;;
20731;SDS011;10527;52.124;5.196;2023-06-26T05:27:37;5.32;;;2.53;;
20731;SDS011;10527;52.124;5.196;2023-06-26T05:30:04;6.22;;;1.90;;
20731;SDS011;10527;52.124;5.196;2023-06-26T05:32:33;2.97;;;1.80;;
20731;SDS011;10527;52.124;5.196;2023-06-26T05:35:03;4.20;;;2.10;;
20731;SDS011;10527;52.124;5.196;2023-06-26T05:37:31;9.80;;;2.72;;
20731;SDS011;10527;52.124;5.196;2023-06-26T05:40:00;5.97;;;2.05;;
20731;SDS011;10527;52.124;5.196;2023-06-26T05:42:33;4.20;;;1.92;;
20731;SDS011;10527;52.124;5.196;2023-06-26T05:45:00;4.07;;;1.92;;
20731;SDS011;10527;52.124;5.196;2023-06-26T05:47:27;4.15;;;2.00;;
20731;SDS011;10527;52.124;5.196;2023-06-26T05:49:54;4.13;;;1.80;;
20731;SDS011;10527;52.124;5.196;2023-06-26T05:52:21;6.30;;;2.20;;
20731;SDS011;10527;52.124;5.196;2023-06-26T05:54:50;5.18;;;2.40;;
20731;SDS011;10527;52.124;5.196;2023-06-26T05:57:17;5.70;;;2.13;;
20731;SDS011;10527;52.124;5.196;2023-06-26T05:59:45;3.35;;;1.45;;
20731;SDS011;10527;52.124;5.196;2023-06-26T06:02:15;4.13;;;1.77;;
20731;SDS011;10527;52.124;5.196;2023-06-26T06:04:41;5.78;;;2.05;;
20731;SDS011;10527;52.124;5.196;2023-06-26T06:07:08;4.57;;;1.67;;
20731;SDS011;10527;52.124;5.196;2023-06-26T06:09:35;7.18;;;2.08;;
20731;SDS011;10527;52.124;5.196;2023-06-26T06:12:05;3.38;;;1.80;;
20731;SDS011;10527;52.124;5.196;2023-06-26T06:14:34;4.40;;;1.70;;
20731;SDS011;10527;52.124;5.196;2023-06-26T06:17:01;3.67;;;1.75;;
20731;SDS011;10527;52.124;5.196;2023-06-26T06:19:28;4.78;;;2.53;;
20731;SDS011;10527;52.124;5.196;2023-06-26T06:21:55;2.28;;;1.60;;
20731;SDS011;10527;52.124;5.196;2023-06-26T06:24:22;4.15;;;1.33;;
20731;SDS011;10527;52.124;5.196;2023-06-26T06:26:49;5.63;;;1.90;;
20731;SDS011;10527;52.124;5.196;2023-06-26T06:29:22;4.80;;;1.77;;
20731;SDS011;10527;52.124;5.196;2023-06-26T06:31:52;5.15;;;1.92;;
20731;SDS011;10527;52.124;5.196;2023-06-26T06:34:24;2.70;;;1.42;;
20731;SDS011;10527;52.124;5.196;2023-06-26T06:36:51;5.25;;;1.55;;
20731;SDS011;10527;52.124;5.196;2023-06-26T06:39:18;5.13;;;1.65;;
20731;SDS011;10527;52.124;5.196;2023-06-26T06:41:45;4.50;;;2.08;;
20731;SDS011;10527;52.124;5.196;2023-06-26T06:44:12;3.67;;;1.75;;
20731;SDS011;10527;52.124;5.196;2023-06-26T06:46:41;3.20;;;1.98;;
20731;SDS011;10527;52.124;5.196;2023-06-26T06:49:09;4.13;;;2.00;;
20731;SDS011;10527;52.124;5.196;2023-06-26T06:51:36;3.58;;;1.50;;
20731;SDS011;10527;52.124;5.196;2023-06-26T06:54:03;3.05;;;1.65;;
20731;SDS011;10527;52.124;5.196;2023-06-26T06:56:30;4.88;;;1.80;;
20731;SDS011;10527;52.124;5.196;2023-06-26T06:58:57;4.13;;;1.92;;
20731;SDS011;10527;52.124;5.196;2023-06-26T07:01:24;5.70;;;1.90;;
20731;SDS011;10527;52.124;5.196;2023-06-26T07:03:51;3.00;;;1.50;;
20731;SDS011;10527;52.124;5.196;2023-06-26T07:06:18;3.92;;;1.92;;
20731;SDS011;10527;52.124;5.196;2023-06-26T07:08:45;6.85;;;2.00;;
20731;SDS011;10527;52.124;5.196;2023-06-26T07:11:12;8.95;;;1.92;;
20731;SDS011;10527;52.124;5.196;2023-06-26T07:13:38;3.30;;;1.52;;
20731;SDS011;10527;52.124;5.196;2023-06-26T07:16:06;4.57;;;2.03;;
20731;SDS011;10527;52.124;5.196;2023-06-26T07:18:33;4.63;;;2.22;;
20731;SDS011;10527;52.124;5.196;2023-06-26T07:21:03;5.25;;;1.90;;
20731;SDS011;10527;52.124;5.196;2023-06-26T07:23:30;6.88;;;1.77;;
20731;SDS011;10527;52.124;5.196;2023-06-26T07:25:57;5.57;;;1.90;;
20731;SDS011;10527;52.124;5.196;2023-06-26T07:28:24;3.42;;;1.33;;
20731;SDS011;10527;52.124;5.196;2023-06-26T07:30:51;5.30;;;1.73;;
20731;SDS011;10527;52.124;5.196;2023-06-26T07:33:18;7.65;;;1.73;;
20731;SDS011;10527;52.124;5.196;2023-06-26T07:35:46;3.60;;;1.60;;
20731;SDS011;10527;52.124;5.196;2023-06-26T07:38:13;5.22;;;1.73;;
20731;SDS011;10527;52.124;5.196;2023-06-26T07:40:40;3.00;;;1.45;;
20731;SDS011;10527;52.124;5.196;2023-06-26T07:43:07;4.13;;;1.75;;
20731;SDS011;10527;52.124;5.196;2023-06-26T07:45:34;4.32;;;1.85;;
20731;SDS011;10527;52.124;5.196;2023-06-26T07:48:01;3.90;;;1.20;;
20731;SDS011;10527;52.124;5.196;2023-06-26T07:50:28;5.82;;;1.63;;
20731;SDS011;10527;52.124;5.196;2023-06-26T07:52:55;4.13;;;1.60;;
20731;SDS011;10527;52.124;5.196;2023-06-26T07:55:22;4.60;;;1.73;;
20731;SDS011;10527;52.124;5.196;2023-06-26T07:57:49;5.93;;;1.45;;
20731;SDS011;10527;52.124;5.196;2023-06-26T08:00:18;3.03;;;1.38;;
20731;SDS011;10527;52.124;5.196;2023-06-26T08:02:45;3.05;;;1.52;;
20731;SDS011;10527;52.124;5.196;2023-06-26T08:05:12;4.60;;;1.50;;
20731;SDS011;10527;52.124;5.196;2023-06-26T08:07:39;3.42;;;1.13;;
20731;SDS011;10527;52.124;5.196;2023-06-26T08:10:06;2.83;;;1.23;;
20731;SDS011;10527;52.124;5.196;2023-06-26T08:12:33;5.55;;;1.77;;
20731;SDS011;10527;52.124;5.196;2023-06-26T08:17:31;5.90;;;1.33;;
20731;SDS011;10527;52.124;5.196;2023-06-26T08:19:58;5.72;;;1.15;;
20731;SDS011;10527;52.124;5.196;2023-06-26T08:22:25;2.47;;;0.85;;
20731;SDS011;10527;52.124;5.196;2023-06-26T08:24:52;3.58;;;1.10;;
20731;SDS011;10527;52.124;5.196;2023-06-26T08:27:18;7.57;;;2.05;;
20731;SDS011;10527;52.124;5.196;2023-06-26T08:29:45;4.45;;;0.90;;
20731;SDS011;10527;52.124;5.196;2023-06-26T08:32:12;5.63;;;1.60;;
20731;SDS011;10527;52.124;5.196;2023-06-26T08:34:39;4.75;;;1.50;;
20731;SDS011;10527;52.124;5.196;2023-06-26T08:37:06;4.53;;;1.10;;
20731;SDS011;10527;52.124;5.196;2023-06-26T08:39:35;4.05;;;1.15;;
20731;SDS011;10527;52.124;5.196;2023-06-26T08:42:02;3.50;;;0.90;;
20731;SDS011;10527;52.124;5.196;2023-06-26T08:44:29;2.22;;;0.80;;
20731;SDS011;10527;52.124;5.196;2023-06-26T08:46:56;5.13;;;0.95;;
20731;SDS011;10527;52.124;5.196;2023-06-26T08:49:34;4.53;;;1.10;;
20731;SDS011;10527;52.124;5.196;2023-06-26T08:52:59;2.85;;;1.00;;
20731;SDS011;10527;52.124;5.196;2023-06-26T08:55:35;3.42;;;1.00;;
20731;SDS011;10527;52.124;5.196;2023-06-26T08:58:04;5.15;;;1.10;;
20731;SDS011;10527;52.124;5.196;2023-06-26T09:00:31;3.03;;;1.20;;
20731;SDS011;10527;52.124;5.196;2023-06-26T09:03:00;6.82;;;0.70;;
20731;SDS011;10527;52.124;5.196;2023-06-26T09:05:29;4.65;;;1.05;;
20731;SDS011;10527;52.124;5.196;2023-06-26T09:07:59;4.53;;;0.85;;
20731;SDS011;10527;52.124;5.196;2023-06-26T09:10:26;3.00;;;1.00;;
20731;SDS011;10527;52.124;5.196;2023-06-26T09:12:56;5.25;;;0.90;;
20731;SDS011;10527;52.124;5.196;2023-06-26T09:15:24;3.60;;;1.10;;
20731;SDS011;10527;52.124;5.196;2023-06-26T09:17:51;4.35;;;1.40;;
20731;SDS011;10527;52.124;5.196;2023-06-26T09:20:27;4.63;;;1.20;;
20731;SDS011;10527;52.124;5.196;2023-06-26T09:22:57;3.97;;;1.38;;
20731;SDS011;10527;52.124;5.196;2023-06-26T09:25:24;1.65;;;0.88;;
20731;SDS011;10527;52.124;5.196;2023-06-26T09:27:52;3.35;;;1.55;;
20731;SDS011;10527;52.124;5.196;2023-06-26T09:30:19;4.00;;;1.25;;
20731;SDS011;10527;52.124;5.196;2023-06-26T09:32:47;4.68;;;1.30;;
20731;SDS011;10527;52.124;5.196;2023-06-26T09:35:16;4.00;;;1.27;;
20731;SDS011;10527;52.124;5.196;2023-06-26T09:37:43;4.00;;;1.30;;
20731;SDS011;10527;52.124;5.196;2023-06-26T09:40:10;1.95;;;0.82;;
20731;SDS011;10527;52.124;5.196;2023-06-26T09:42:37;3.63;;;1.10;;
20731;SDS011;10527;52.124;5.196;2023-06-26T09:45:04;3.40;;;1.10;;
20731;SDS011;10527;52.124;5.196;2023-06-26T09:47:33;4.20;;;1.02;;
20731;SDS011;10527;52.124;5.196;2023-06-26T09:50:02;3.17;;;1.00;;
20731;SDS011;10527;52.124;5.196;2023-06-26T09:52:31;2.40;;;0.95;;
20731;SDS011;10527;52.124;5.196;2023-06-26T09:55:08;2.22;;;0.93;;
20731;SDS011;10527;52.124;5.196;2023-06-26T09:57:38;3.45;;;0.90;;
20731;SDS011;10527;52.124;5.196;2023-06-26T10:00:05;2.45;;;0.82;;
20731;SDS011;10527;52.124;5.196;2023-06-26T10:02:35;3.45;;;1.00;;
20731;SDS011;10527;52.124;5.196;2023-06-26T10:05:02;1.77;;;0.85;;
20731;SDS011;10527;52.124;5.196;2023-06-26T10:07:29;3.80;;;1.42;;
20731;SDS011;10527;52.124;5.196;2023-06-26T10:09:58;2.42;;;0.73;;
20731;SDS011;10527;52.124;5.196;2023-06-26T10:12:29;3.08;;;0.95;;
20731;SDS011;10527;52.124;5.196;2023-06-26T10:14:57;2.40;;;1.00;;
20731;SDS011;10527;52.124;5.196;2023-06-26T10:17:30;6.72;;;0.70;;
20731;SDS011;10527;52.124;5.196;2023-06-26T10:20:02;4.80;;;1.05;;
20731;SDS011;10527;52.124;5.196;2023-06-26T10:25:10;3.00;;;0.90;;
20731;SDS011;10527;52.124;5.196;2023-06-26T10:27:58;2.70;;;0.80;;
20731;SDS011;10527;52.124;5.196;2023-06-26T10:30:38;6.47;;;1.05;;
20731;SDS011;10527;52.124;5.196;2023-06-26T10:33:13;2.78;;;0.88;;
20731;SDS011;10527;52.124;5.196;2023-06-26T10:35:44;3.75;;;0.98;;
20731;SDS011;10527;52.124;5.196;2023-06-26T10:38:12;2.45;;;0.90;;
20731;SDS011;10527;52.124;5.196;2023-06-26T10:40:53;9.18;;;1.35;;
20731;SDS011;10527;52.124;5.196;2023-06-26T10:43:19;3.15;;;1.05;;
20731;SDS011;10527;52.124;5.196;2023-06-26T10:45:48;2.33;;;0.90;;
20731;SDS011;10527;52.124;5.196;2023-06-26T10:48:21;1.80;;;0.63;;
20731;SDS011;10527;52.124;5.196;2023-06-26T10:50:49;2.95;;;0.73;;
20731;SDS011;10527;52.124;5.196;2023-06-26T10:53:23;4.03;;;0.70;;
20731;SDS011;10527;52.124;5.196;2023-06-26T11:01:21;4.15;;;0.70;;
20731;SDS011;10527;52.124;5.196;2023-06-26T11:04:00;2.72;;;1.17;;
20731;SDS011;10527;52.124;5.196;2023-06-26T11:06:35;2.15;;;0.80;;
20731;SDS011;10527;52.124;5.196;2023-06-26T11:09:17;5.80;;;1.00;;
20731;SDS011;10527;52.124;5.196;2023-06-26T11:11:55;5.32;;;1.10;;
20731;SDS011;10527;52.124;5.196;2023-06-26T11:14:28;2.88;;;0.88;;
20731;SDS011;10527;52.124;5.196;2023-06-26T11:16:57;2.50;;;0.93;;
20731;SDS011;10527;52.124;5.196;2023-06-26T11:19:28;2.20;;;0.70;;
20731;SDS011;10527;52.124;5.196;2023-06-26T11:22:01;2.78;;;0.80;;
20731;SDS011;10527;52.124;5.196;2023-06-26T11:27:06;3.92;;;1.20;;
20731;SDS011;10527;52.124;5.196;2023-06-26T11:29:37;1.70;;;0.88;;
20731;SDS011;10527;52.124;5.196;2023-06-26T11:32:04;3.35;;;0.55;;
20731;SDS011;10527;52.124;5.196;2023-06-26T11:34:32;3.90;;;0.80;;
20731;SDS011;10527;52.124;5.196;2023-06-26T11:37:00;3.13;;;0.52;;
20731;SDS011;10527;52.124;5.196;2023-06-26T11:39:27;3.50;;;0.50;;
20731;SDS011;10527;52.124;5.196;2023-06-26T11:41:55;5.35;;;0.77;;
20731;SDS011;10527;52.124;5.196;2023-06-26T11:44:24;3.35;;;1.20;;
20731;SDS011;10527;52.124;5.196;2023-06-26T11:46:57;2.88;;;0.60;;
20731;SDS011;10527;52.124;5.196;2023-06-26T11:49:24;2.30;;;0.63;;
20731;SDS011;10527;52.124;5.196;2023-06-26T11:51:52;2.15;;;0.68;;
20731;SDS011;10527;52.124;5.196;2023-06-26T11:54:24;2.63;;;0.60;;
20731;SDS011;10527;52.124;5.196;2023-06-26T11:56:57;4.60;;;1.33;;
20731;SDS011;10527;52.124;5.196;2023-06-26T11:59:41;2.38;;;0.80;;
20731;SDS011;10527;52.124;5.196;2023-06-26T12:02:12;0.90;;;0.57;;
20731;SDS011;10527;52.124;5.196;2023-06-26T12:04:41;3.22;;;0.77;;
20731;SDS011;10527;52.124;5.196;2023-06-26T12:07:10;1.80;;;0.68;;
20731;SDS011;10527;52.124;5.196;2023-06-26T12:09:41;1.88;;;0.70;;
20731;SDS011;10527;52.124;5.196;2023-06-26T12:12:12;1.10;;;0.60;;
20731;SDS011;10527;52.124;5.196;2023-06-26T12:14:48;1.02;;;0.60;;
20731;SDS011;10527;52.124;5.196;2023-06-26T12:17:15;1.77;;;0.77;;
20731;SDS011;10527;52.124;5.196;2023-06-26T12:19:45;2.38;;;0.73;;
20731;SDS011;10527;52.124;5.196;2023-06-26T12:22:17;2.65;;;0.80;;
20731;SDS011;10527;52.124;5.196;2023-06-26T12:24:45;1.33;;;0.60;;
20731;SDS011;10527;52.124;5.196;2023-06-26T12:27:14;2.47;;;0.50;;
20731;SDS011;10527;52.124;5.196;2023-06-26T12:29:52;2.65;;;0.90;;
20731;SDS011;10527;52.124;5.196;2023-06-26T12:32:24;1.38;;;0.50;;
20731;SDS011;10527;52.124;5.196;2023-06-26T12:34:55;4.00;;;0.75;;
20731;SDS011;10527;52.124;5.196;2023-06-26T12:37:24;0.63;;;0.50;;
20731;SDS011;10527;52.124;5.196;2023-06-26T12:39:56;1.75;;;0.47;;
20731;SDS011;10527;52.124;5.196;2023-06-26T12:45:09;1.95;;;0.73;;
20731;SDS011;10527;52.124;5.196;2023-06-26T12:48:10;1.77;;;0.70;;
20731;SDS011;10527;52.124;5.196;2023-06-26T12:50:45;2.45;;;0.70;;
20731;SDS011;10527;52.124;5.196;2023-06-26T12:53:12;5.57;;;0.80;;
20731;SDS011;10527;52.124;5.196;2023-06-26T12:55:42;3.80;;;0.65;;
20731;SDS011;10527;52.124;5.196;2023-06-26T12:58:11;2.88;;;0.70;;
20731;SDS011;10527;52.124;5.196;2023-06-26T13:00:38;9.40;;;0.90;;
20731;SDS011;10527;52.124;5.196;2023-06-26T13:03:05;3.42;;;0.80;;
20731;SDS011;10527;52.124;5.196;2023-06-26T13:05:36;1.55;;;0.60;;
20731;SDS011;10527;52.124;5.196;2023-06-26T13:08:03;2.47;;;0.60;;
20731;SDS011;10527;52.124;5.196;2023-06-26T13:10:30;2.58;;;0.70;;
20731;SDS011;10527;52.124;5.196;2023-06-26T13:12:57;2.67;;;1.00;;
20731;SDS011;10527;52.124;5.196;2023-06-26T13:15:24;4.57;;;1.00;;
20731;SDS011;10527;52.124;5.196;2023-06-26T13:17:51;3.28;;;0.85;;
20731;SDS011;10527;52.124;5.196;2023-06-26T13:20:18;2.55;;;0.70;;
20731;SDS011;10527;52.124;5.196;2023-06-26T13:22:46;2.97;;;0.70;;
20731;SDS011;10527;52.124;5.196;2023-06-26T13:25:13;2.20;;;0.73;;
20731;SDS011;10527;52.124;5.196;2023-06-26T13:27:41;1.98;;;0.60;;
20731;SDS011;10527;52.124;5.196;2023-06-26T13:30:08;1.58;;;0.70;;
20731;SDS011;10527;52.124;5.196;2023-06-26T13:32:36;3.92;;;0.98;;
20731;SDS011;10527;52.124;5.196;2023-06-26T13:35:03;3.58;;;0.82;;
20731;SDS011;10527;52.124;5.196;2023-06-26T13:37:32;2.42;;;0.70;;
20731;SDS011;10527;52.124;5.196;2023-06-26T13:40:03;1.50;;;0.52;;
20731;SDS011;10527;52.124;5.196;2023-06-26T13:42:37;3.28;;;0.73;;
20731;SDS011;10527;52.124;5.196;2023-06-26T13:45:06;2.20;;;0.80;;
20731;SDS011;10527;52.124;5.196;2023-06-26T13:47:52;3.67;;;1.63;;
20731;SDS011;10527;52.124;5.196;2023-06-26T13:50:28;3.92;;;0.70;;
20731;SDS011;10527;52.124;5.196;2023-06-26T13:53:15;1.95;;;0.57;;
20731;SDS011;10527;52.124;5.196;2023-06-26T13:55:43;2.03;;;0.70;;
20731;SDS011;10527;52.124;5.196;2023-06-26T13:58:11;1.65;;;0.70;;
20731;SDS011;10527;52.124;5.196;2023-06-26T14:00:39;2.05;;;0.70;;
20731;SDS011;10527;52.124;5.196;2023-06-26T14:03:07;3.55;;;0.75;;
20731;SDS011;10527;52.124;5.196;2023-06-26T14:05:34;2.15;;;0.40;;
20731;SDS011;10527;52.124;5.196;2023-06-26T14:08:04;2.35;;;0.60;;
20731;SDS011;10527;52.124;5.196;2023-06-26T14:10:35;1.25;;;0.50;;
20731;SDS011;10527;52.124;5.196;2023-06-26T14:13:03;2.60;;;0.63;;
20731;SDS011;10527;52.124;5.196;2023-06-26T14:15:30;1.17;;;0.50;;
20731;SDS011;10527;52.124;5.196;2023-06-26T14:17:59;1.05;;;0.50;;
20731;SDS011;10527;52.124;5.196;2023-06-26T14:20:29;1.92;;;0.60;;
20731;SDS011;10527;52.124;5.196;2023-06-26T14:22:59;2.33;;;0.60;;
20731;SDS011;10527;52.124;5.196;2023-06-26T14:25:26;1.98;;;0.70;;
20731;SDS011;10527;52.124;5.196;2023-06-26T14:27:57;1.45;;;0.50;;
20731;SDS011;10527;52.124;5.196;2023-06-26T14:30:27;2.40;;;0.50;;
20731;SDS011;10527;52.124;5.196;2023-06-26T14:32:56;1.30;;;0.40;;
20731;SDS011;10527;52.124;5.196;2023-06-26T14:35:28;1.38;;;0.50;;
20731;SDS011;10527;52.124;5.196;2023-06-26T14:37:55;2.38;;;0.60;;
20731;SDS011;10527;52.124;5.196;2023-06-26T14:40:22;1.75;;;0.68;;
20731;SDS011;10527;52.124;5.196;2023-06-26T14:42:50;1.63;;;0.65;;
20731;SDS011;10527;52.124;5.196;2023-06-26T14:45:17;1.58;;;0.60;;
20731;SDS011;10527;52.124;5.196;2023-06-26T14:47:45;0.80;;;0.60;;
20731;SDS011;10527;52.124;5.196;2023-06-26T14:50:21;4.47;;;0.75;;
20731;SDS011;10527;52.124;5.196;2023-06-26T14:52:48;2.47;;;0.75;;
20731;SDS011;10527;52.124;5.196;2023-06-26T14:55:15;4.05;;;0.70;;
20731;SDS011;10527;52.124;5.196;2023-06-26T14:57:43;4.40;;;0.70;;
20731;SDS011;10527;52.124;5.196;2023-06-26T15:00:11;3.28;;;0.88;;
20731;SDS011;10527;52.124;5.196;2023-06-26T15:02:38;2.03;;;0.75;;
20731;SDS011;10527;52.124;5.196;2023-06-26T15:05:05;2.20;;;1.25;;
20731;SDS011;10527;52.124;5.196;2023-06-26T15:07:33;3.03;;;1.08;;
20731;SDS011;10527;52.124;5.196;2023-06-26T15:10:00;3.47;;;0.73;;
20731;SDS011;10527;52.124;5.196;2023-06-26T15:12:27;1.60;;;0.77;;
20731;SDS011;10527;52.124;5.196;2023-06-26T15:14:54;2.03;;;0.50;;
20731;SDS011;10527;52.124;5.196;2023-06-26T15:17:21;3.30;;;0.70;;
20731;SDS011;10527;52.124;5.196;2023-06-26T15:19:49;1.42;;;0.70;;
20731;SDS011;10527;52.124;5.196;2023-06-26T15:22:17;3.25;;;0.77;;
20731;SDS011;10527;52.124;5.196;2023-06-26T15:24:45;2.85;;;0.70;;
20731;SDS011;10527;52.124;5.196;2023-06-26T15:27:12;2.15;;;0.70;;
20731;SDS011;10527;52.124;5.196;2023-06-26T15:29:40;1.80;;;0.60;;
20731;SDS011;10527;52.124;5.196;2023-06-26T15:32:07;2.33;;;0.70;;
20731;SDS011;10527;52.124;5.196;2023-06-26T15:34:35;2.75;;;0.65;;